sensor_id;sensor_type;location;lat;lon;timestamp;P1;durP1;ratioP1;P2;durP2;ratioP2
34353;SDS011;20618;0.000;0.000;2024-03-07T00:00:06;7.35;;;2.50;;
34353;SDS011;20618;0.000;0.000;2024-03-07T00:02:49;6.50;;;2.45;;
34353;SDS011;20618;0.000;0.000;2024-03-07T00:05:16;5.22;;;2.47;;
34353;SDS011;20618;0.000;0.000;2024-03-07T00:07:42;4.68;;;2.42;;
34353;SDS011;20618;0.000;0.000;2024-03-07T00:10:11;7.63;;;2.60;;
34353;SDS011;20618;0.000;0.000;2024-03-07T00:12:38;8.85;;;2.38;;
34353;SDS011;20618;0.000;0.000;2024-03-07T00:15:06;5.28;;;2.70;;
34353;SDS011;20618;0.000;0.000;2024-03-07T00:17:32;5.68;;;2.42;;
34353;SDS011;20618;0.000;0.000;2024-03-07T00:19:59;4.57;;;2.35;;
34353;SDS011;20618;0.000;0.000;2024-03-07T00:22:26;5.70;;;2.30;;
34353;SDS011;20618;0.000;0.000;2024-03-07T00:24:55;6.75;;;2.42;;
34353;SDS011;20618;0.000;0.000;2024-03-07T00:27:21;4.95;;;2.10;;
34353;SDS011;20618;0.000;0.000;2024-03-07T00:29:48;7.90;;;2.45;;
34353;SDS011;20618;0.000;0.000;2024-03-07T00:32:25;6.38;;;2.28;;
34353;SDS011;20618;0.000;0.000;2024-03-07T00:34:54;5.30;;;2.22;;
34353;SDS011;20618;0.000;0.000;2024-03-07T00:37:22;5.78;;;2.28;;
34353;SDS011;20618;0.000;0.000;2024-03-07T00:39:49;7.65;;;2.75;;
34353;SDS011;20618;0.000;0.000;2024-03-07T00:42:16;7.65;;;2.35;;
34353;SDS011;20618;0.000;0.000;2024-03-07T00:44:42;6.28;;;2.60;;
34353;SDS011;20618;0.000;0.000;2024-03-07T00:47:08;7.72;;;2.30;;
34353;SDS011;20618;0.000;0.000;2024-03-07T00:49:34;6.50;;;2.30;;
34353;SDS011;20618;0.000;0.000;2024-03-07T00:52:01;4.15;;;1.98;;
34353;SDS011;20618;0.000;0.000;2024-03-07T00:54:27;5.85;;;2.55;;
34353;SDS011;20618;0.000;0.000;2024-03-07T00:56:54;7.30;;;2.38;;
34353;SDS011;20618;0.000;0.000;2024-03-07T00:59:20;7.57;;;2.78;;
34353;SDS011;20618;0.000;0.000;2024-03-07T01:01:46;6.45;;;2.22;;
34353;SDS011;20618;0.000;0.000;2024-03-07T01:04:14;6.20;;;2.70;;
34353;SDS011;20618;0.000;0.000;2024-03-07T01:06:40;7.57;;;2.50;;
34353;SDS011;20618;0.000;0.000;2024-03-07T01:09:06;6.00;;;2.05;;
34353;SDS011;20618;0.000;0.000;2024-03-07T01:11:39;5.00;;;2.47;;
34353;SDS011;20618;0.000;0.000;2024-03-07T01:14:05;6.55;;;2.63;;
34353;SDS011;20618;0.000;0.000;2024-03-07T01:16:32;6.60;;;2.40;;
34353;SDS011;20618;0.000;0.000;2024-03-07T01:18:58;3.92;;;2.53;;
34353;SDS011;20618;0.000;0.000;2024-03-07T01:21:24;5.60;;;2.65;;
34353;SDS011;20618;0.000;0.000;2024-03-07T01:23:51;7.30;;;2.63;;
34353;SDS011;20618;0.000;0.000;2024-03-07T01:26:17;6.45;;;2.50;;
34353;SDS011;20618;0.000;0.000;2024-03-07T01:28:43;6.10;;;2.80;;
34353;SDS011;20618;0.000;0.000;2024-03-07T01:31:09;6.70;;;2.35;;
34353;SDS011;20618;0.000;0.000;2024-03-07T01:33:35;4.75;;;2.30;;
34353;SDS011;20618;0.000;0.000;2024-03-07T01:36:02;7.22;;;2.90;;
34353;SDS011;20618;0.000;0.000;2024-03-07T01:38:30;5.35;;;2.50;;
34353;SDS011;20618;0.000;0.000;2024-03-07T01:40:56;6.30;;;2.50;;
34353;SDS011;20618;0.000;0.000;2024-03-07T01:43:22;5.05;;;2.28;;
34353;SDS011;20618;0.000;0.000;2024-03-07T01:45:48;5.22;;;2.65;;
34353;SDS011;20618;0.000;0.000;2024-03-07T01:48:20;5.05;;;2.50;;
34353;SDS011;20618;0.000;0.000;2024-03-07T01:50:50;6.85;;;2.53;;
34353;SDS011;20618;0.000;0.000;2024-03-07T01:53:16;4.90;;;2.53;;
34353;SDS011;20618;0.000;0.000;2024-03-07T01:55:43;7.78;;;2.63;;
34353;SDS011;20618;0.000;0.000;2024-03-07T01:58:09;4.47;;;2.22;;
34353;SDS011;20618;0.000;0.000;2024-03-07T02:00:38;6.32;;;2.63;;
34353;SDS011;20618;0.000;0.000;2024-03-07T02:03:04;5.05;;;2.70;;
34353;SDS011;20618;0.000;0.000;2024-03-07T02:05:32;5.38;;;2.40;;
34353;SDS011;20618;0.000;0.000;2024-03-07T02:07:58;5.30;;;2.58;;
34353;SDS011;20618;0.000;0.000;2024-03-07T02:10:26;5.95;;;2.40;;
34353;SDS011;20618;0.000;0.000;2024-03-07T02:12:53;5.43;;;2.40;;
34353;SDS011;20618;0.000;0.000;2024-03-07T02:15:19;3.33;;;1.95;;
34353;SDS011;20618;0.000;0.000;2024-03-07T02:17:45;6.75;;;2.80;;
34353;SDS011;20618;0.000;0.000;2024-03-07T02:20:12;4.75;;;2.20;;
34353;SDS011;20618;0.000;0.000;2024-03-07T02:22:38;4.88;;;2.72;;
34353;SDS011;20618;0.000;0.000;2024-03-07T02:25:06;5.28;;;2.47;;
34353;SDS011;20618;0.000;0.000;2024-03-07T02:27:35;5.63;;;2.22;;
34353;SDS011;20618;0.000;0.000;2024-03-07T02:30:01;3.65;;;2.42;;
34353;SDS011;20618;0.000;0.000;2024-03-07T02:32:27;5.60;;;2.60;;
34353;SDS011;20618;0.000;0.000;2024-03-07T02:34:54;5.90;;;2.60;;
34353;SDS011;20618;0.000;0.000;2024-03-07T02:37:20;4.60;;;2.55;;
34353;SDS011;20618;0.000;0.000;2024-03-07T02:39:46;4.97;;;2.33;;
34353;SDS011;20618;0.000;0.000;2024-03-07T02:42:12;6.88;;;2.50;;
34353;SDS011;20618;0.000;0.000;2024-03-07T02:44:38;5.80;;;2.38;;
34353;SDS011;20618;0.000;0.000;2024-03-07T02:47:06;4.57;;;2.50;;
34353;SDS011;20618;0.000;0.000;2024-03-07T02:49:32;5.55;;;2.30;;
34353;SDS011;20618;0.000;0.000;2024-03-07T02:51:58;5.63;;;2.25;;
34353;SDS011;20618;0.000;0.000;2024-03-07T02:54:25;6.45;;;2.50;;
34353;SDS011;20618;0.000;0.000;2024-03-07T02:56:51;4.65;;;2.22;;
34353;SDS011;20618;0.000;0.000;2024-03-07T02:59:17;5.18;;;2.70;;
34353;SDS011;20618;0.000;0.000;2024-03-07T03:01:43;4.65;;;2.47;;
34353;SDS011;20618;0.000;0.000;2024-03-07T03:04:10;4.90;;;2.63;;
34353;SDS011;20618;0.000;0.000;2024-03-07T03:06:36;3.92;;;2.22;;
34353;SDS011;20618;0.000;0.000;2024-03-07T03:09:02;3.67;;;2.20;;
34353;SDS011;20618;0.000;0.000;2024-03-07T03:11:30;5.13;;;2.25;;
34353;SDS011;20618;0.000;0.000;2024-03-07T03:13:56;4.50;;;2.53;;
34353;SDS011;20618;0.000;0.000;2024-03-07T03:16:22;3.78;;;2.10;;
34353;SDS011;20618;0.000;0.000;2024-03-07T03:18:48;5.53;;;2.30;;
34353;SDS011;20618;0.000;0.000;2024-03-07T03:21:14;5.97;;;2.67;;
34353;SDS011;20618;0.000;0.000;2024-03-07T03:23:41;4.88;;;2.30;;
34353;SDS011;20618;0.000;0.000;2024-03-07T03:26:07;6.43;;;2.55;;
34353;SDS011;20618;0.000;0.000;2024-03-07T03:28:33;5.45;;;2.40;;
34353;SDS011;20618;0.000;0.000;2024-03-07T03:30:59;3.95;;;2.53;;
34353;SDS011;20618;0.000;0.000;2024-03-07T03:33:25;4.75;;;2.58;;
34353;SDS011;20618;0.000;0.000;2024-03-07T03:35:51;4.53;;;2.40;;
34353;SDS011;20618;0.000;0.000;2024-03-07T03:38:20;4.88;;;2.42;;
34353;SDS011;20618;0.000;0.000;2024-03-07T03:40:46;3.83;;;2.10;;
34353;SDS011;20618;0.000;0.000;2024-03-07T03:43:12;5.85;;;2.38;;
34353;SDS011;20618;0.000;0.000;2024-03-07T03:45:38;4.88;;;2.35;;
34353;SDS011;20618;0.000;0.000;2024-03-07T03:48:05;4.47;;;2.20;;
34353;SDS011;20618;0.000;0.000;2024-03-07T03:50:31;4.80;;;2.25;;
34353;SDS011;20618;0.000;0.000;2024-03-07T03:52:57;5.53;;;2.72;;
34353;SDS011;20618;0.000;0.000;2024-03-07T03:55:26;4.15;;;2.13;;
34353;SDS011;20618;0.000;0.000;2024-03-07T03:57:52;3.80;;;2.08;;
34353;SDS011;20618;0.000;0.000;2024-03-07T04:00:18;4.00;;;2.33;;
34353;SDS011;20618;0.000;0.000;2024-03-07T04:02:48;5.05;;;2.42;;
34353;SDS011;20618;0.000;0.000;2024-03-07T04:05:14;4.03;;;2.20;;
34353;SDS011;20618;0.000;0.000;2024-03-07T04:07:41;3.75;;;2.10;;
34353;SDS011;20618;0.000;0.000;2024-03-07T04:10:07;5.32;;;2.50;;
34353;SDS011;20618;0.000;0.000;2024-03-07T04:12:34;4.68;;;2.63;;
34353;SDS011;20618;0.000;0.000;2024-03-07T04:15:00;6.45;;;2.60;;
34353;SDS011;20618;0.000;0.000;2024-03-07T04:17:29;6.30;;;2.53;;
34353;SDS011;20618;0.000;0.000;2024-03-07T04:19:55;4.50;;;2.28;;
34353;SDS011;20618;0.000;0.000;2024-03-07T04:22:23;4.82;;;2.45;;
34353;SDS011;20618;0.000;0.000;2024-03-07T04:24:50;4.30;;;2.25;;
34353;SDS011;20618;0.000;0.000;2024-03-07T04:27:19;4.30;;;2.25;;
34353;SDS011;20618;0.000;0.000;2024-03-07T04:29:46;4.85;;;2.47;;
34353;SDS011;20618;0.000;0.000;2024-03-07T04:32:15;4.55;;;2.38;;
34353;SDS011;20618;0.000;0.000;2024-03-07T04:34:42;4.97;;;2.42;;
34353;SDS011;20618;0.000;0.000;2024-03-07T04:37:08;4.53;;;2.70;;
34353;SDS011;20618;0.000;0.000;2024-03-07T04:39:35;5.38;;;2.60;;
34353;SDS011;20618;0.000;0.000;2024-03-07T04:42:01;5.65;;;2.55;;
34353;SDS011;20618;0.000;0.000;2024-03-07T04:44:28;5.47;;;2.55;;
34353;SDS011;20618;0.000;0.000;2024-03-07T04:46:55;5.70;;;2.63;;
34353;SDS011;20618;0.000;0.000;2024-03-07T04:49:25;5.40;;;2.45;;
34353;SDS011;20618;0.000;0.000;2024-03-07T04:51:51;5.13;;;2.65;;
34353;SDS011;20618;0.000;0.000;2024-03-07T04:54:18;4.80;;;2.28;;
34353;SDS011;20618;0.000;0.000;2024-03-07T04:56:48;6.70;;;2.35;;
34353;SDS011;20618;0.000;0.000;2024-03-07T04:59:14;4.55;;;2.70;;
34353;SDS011;20618;0.000;0.000;2024-03-07T05:01:41;6.40;;;2.90;;
34353;SDS011;20618;0.000;0.000;2024-03-07T05:04:08;3.97;;;2.60;;
34353;SDS011;20618;0.000;0.000;2024-03-07T05:06:34;4.13;;;2.70;;
34353;SDS011;20618;0.000;0.000;2024-03-07T05:09:01;4.28;;;2.45;;
34353;SDS011;20618;0.000;0.000;2024-03-07T05:11:31;4.20;;;2.42;;
34353;SDS011;20618;0.000;0.000;2024-03-07T05:13:57;3.88;;;2.90;;
34353;SDS011;20618;0.000;0.000;2024-03-07T05:16:24;4.15;;;2.47;;
34353;SDS011;20618;0.000;0.000;2024-03-07T05:18:50;4.15;;;2.75;;
34353;SDS011;20618;0.000;0.000;2024-03-07T05:21:17;4.45;;;2.55;;
34353;SDS011;20618;0.000;0.000;2024-03-07T05:24:16;4.45;;;2.50;;
34353;SDS011;20618;0.000;0.000;2024-03-07T05:26:42;3.92;;;2.63;;
34353;SDS011;20618;0.000;0.000;2024-03-07T05:29:10;4.60;;;2.70;;
34353;SDS011;20618;0.000;0.000;2024-03-07T05:31:37;5.20;;;2.70;;
34353;SDS011;20618;0.000;0.000;2024-03-07T05:34:06;4.50;;;2.70;;
34353;SDS011;20618;0.000;0.000;2024-03-07T05:36:35;3.60;;;2.60;;
34353;SDS011;20618;0.000;0.000;2024-03-07T05:39:01;6.43;;;2.75;;
34353;SDS011;20618;0.000;0.000;2024-03-07T05:41:36;5.05;;;2.63;;
34353;SDS011;20618;0.000;0.000;2024-03-07T05:44:02;4.38;;;2.47;;
34353;SDS011;20618;0.000;0.000;2024-03-07T05:46:29;3.72;;;2.78;;
34353;SDS011;20618;0.000;0.000;2024-03-07T05:48:55;4.05;;;2.70;;
34353;SDS011;20618;0.000;0.000;2024-03-07T05:51:25;4.05;;;2.60;;
34353;SDS011;20618;0.000;0.000;2024-03-07T05:53:51;3.95;;;2.60;;
34353;SDS011;20618;0.000;0.000;2024-03-07T05:56:17;4.40;;;3.08;;
34353;SDS011;20618;0.000;0.000;2024-03-07T05:58:43;4.38;;;2.70;;
34353;SDS011;20618;0.000;0.000;2024-03-07T06:03:45;4.72;;;2.80;;
34353;SDS011;20618;0.000;0.000;2024-03-07T06:06:13;4.32;;;2.58;;
34353;SDS011;20618;0.000;0.000;2024-03-07T06:08:40;4.43;;;2.47;;
34353;SDS011;20618;0.000;0.000;2024-03-07T06:11:07;3.80;;;2.35;;
34353;SDS011;20618;0.000;0.000;2024-03-07T06:13:33;4.07;;;2.50;;
34353;SDS011;20618;0.000;0.000;2024-03-07T06:16:00;4.13;;;2.78;;
34353;SDS011;20618;0.000;0.000;2024-03-07T06:18:30;5.10;;;2.90;;
34353;SDS011;20618;0.000;0.000;2024-03-07T06:20:56;4.82;;;2.53;;
34353;SDS011;20618;0.000;0.000;2024-03-07T06:23:23;4.45;;;2.85;;
34353;SDS011;20618;0.000;0.000;2024-03-07T06:25:49;5.57;;;2.83;;
34353;SDS011;20618;0.000;0.000;2024-03-07T06:28:16;3.70;;;2.63;;
34353;SDS011;20618;0.000;0.000;2024-03-07T06:30:46;4.20;;;3.03;;
34353;SDS011;20618;0.000;0.000;2024-03-07T06:33:12;3.30;;;2.50;;
34353;SDS011;20618;0.000;0.000;2024-03-07T06:35:39;6.63;;;2.60;;
34353;SDS011;20618;0.000;0.000;2024-03-07T06:38:06;3.97;;;2.80;;
34353;SDS011;20618;0.000;0.000;2024-03-07T06:40:36;4.57;;;2.75;;
34353;SDS011;20618;0.000;0.000;2024-03-07T06:43:03;5.22;;;3.00;;
34353;SDS011;20618;0.000;0.000;2024-03-07T06:45:32;5.25;;;2.38;;
34353;SDS011;20618;0.000;0.000;2024-03-07T06:47:59;6.82;;;3.03;;
34353;SDS011;20618;0.000;0.000;2024-03-07T06:50:26;5.45;;;2.88;;
34353;SDS011;20618;0.000;0.000;2024-03-07T06:52:54;3.72;;;2.63;;
34353;SDS011;20618;0.000;0.000;2024-03-07T06:55:21;4.70;;;2.78;;
34353;SDS011;20618;0.000;0.000;2024-03-07T06:57:47;5.53;;;2.85;;
34353;SDS011;20618;0.000;0.000;2024-03-07T07:00:14;4.47;;;3.05;;
34353;SDS011;20618;0.000;0.000;2024-03-07T07:02:47;4.57;;;2.97;;
34353;SDS011;20618;0.000;0.000;2024-03-07T07:05:13;5.03;;;3.17;;
34353;SDS011;20618;0.000;0.000;2024-03-07T07:07:46;5.55;;;2.97;;
34353;SDS011;20618;0.000;0.000;2024-03-07T07:10:13;5.00;;;2.78;;
34353;SDS011;20618;0.000;0.000;2024-03-07T07:12:50;5.32;;;2.85;;
34353;SDS011;20618;0.000;0.000;2024-03-07T07:17:46;3.80;;;2.50;;
34353;SDS011;20618;0.000;0.000;2024-03-07T07:20:14;6.28;;;2.63;;
34353;SDS011;20618;0.000;0.000;2024-03-07T07:22:40;7.22;;;2.40;;
34353;SDS011;20618;0.000;0.000;2024-03-07T07:25:07;6.38;;;2.97;;
34353;SDS011;20618;0.000;0.000;2024-03-07T07:27:44;5.90;;;2.63;;
34353;SDS011;20618;0.000;0.000;2024-03-07T07:30:11;8.15;;;2.90;;
34353;SDS011;20618;0.000;0.000;2024-03-07T07:32:38;6.03;;;2.83;;
34353;SDS011;20618;0.000;0.000;2024-03-07T07:35:04;8.27;;;2.90;;
34353;SDS011;20618;0.000;0.000;2024-03-07T07:37:36;9.07;;;3.05;;
34353;SDS011;20618;0.000;0.000;2024-03-07T07:40:03;4.15;;;3.00;;
34353;SDS011;20618;0.000;0.000;2024-03-07T07:42:29;6.72;;;3.10;;
34353;SDS011;20618;0.000;0.000;2024-03-07T07:44:55;6.93;;;3.30;;
34353;SDS011;20618;0.000;0.000;2024-03-07T07:47:21;9.85;;;3.70;;
34353;SDS011;20618;0.000;0.000;2024-03-07T07:49:48;8.73;;;3.45;;
34353;SDS011;20618;0.000;0.000;2024-03-07T07:52:14;11.82;;;3.53;;
34353;SDS011;20618;0.000;0.000;2024-03-07T07:54:42;13.68;;;3.88;;
34353;SDS011;20618;0.000;0.000;2024-03-07T07:57:08;8.65;;;3.40;;
34353;SDS011;20618;0.000;0.000;2024-03-07T07:59:34;7.50;;;3.35;;
34353;SDS011;20618;0.000;0.000;2024-03-07T08:02:02;13.90;;;3.58;;
34353;SDS011;20618;0.000;0.000;2024-03-07T08:04:31;15.88;;;4.10;;
34353;SDS011;20618;0.000;0.000;2024-03-07T08:06:58;9.48;;;3.53;;
34353;SDS011;20618;0.000;0.000;2024-03-07T08:09:25;11.52;;;3.90;;
34353;SDS011;20618;0.000;0.000;2024-03-07T08:11:51;11.43;;;3.47;;
34353;SDS011;20618;0.000;0.000;2024-03-07T08:14:17;10.80;;;3.45;;
34353;SDS011;20618;0.000;0.000;2024-03-07T08:16:47;7.78;;;3.38;;
34353;SDS011;20618;0.000;0.000;2024-03-07T08:19:14;5.93;;;3.17;;
34353;SDS011;20618;0.000;0.000;2024-03-07T08:21:40;6.63;;;3.58;;
34353;SDS011;20618;0.000;0.000;2024-03-07T08:24:06;15.63;;;5.38;;
34353;SDS011;20618;0.000;0.000;2024-03-07T08:26:36;12.75;;;3.80;;
34353;SDS011;20618;0.000;0.000;2024-03-07T08:29:02;16.40;;;4.50;;
34353;SDS011;20618;0.000;0.000;2024-03-07T08:31:30;10.55;;;3.67;;
34353;SDS011;20618;0.000;0.000;2024-03-07T08:33:56;14.98;;;4.75;;
34353;SDS011;20618;0.000;0.000;2024-03-07T08:36:22;17.48;;;5.32;;
34353;SDS011;20618;0.000;0.000;2024-03-07T08:38:48;20.42;;;4.75;;
34353;SDS011;20618;0.000;0.000;2024-03-07T08:41:17;19.25;;;4.97;;
34353;SDS011;20618;0.000;0.000;2024-03-07T08:43:43;14.15;;;4.22;;
34353;SDS011;20618;0.000;0.000;2024-03-07T08:46:09;13.00;;;4.85;;
34353;SDS011;20618;0.000;0.000;2024-03-07T08:48:36;9.70;;;3.60;;
34353;SDS011;20618;0.000;0.000;2024-03-07T08:51:03;11.70;;;3.88;;
34353;SDS011;20618;0.000;0.000;2024-03-07T08:53:29;10.73;;;3.92;;
34353;SDS011;20618;0.000;0.000;2024-03-07T08:55:55;12.75;;;4.25;;
34353;SDS011;20618;0.000;0.000;2024-03-07T08:58:23;11.13;;;3.70;;
34353;SDS011;20618;0.000;0.000;2024-03-07T09:00:50;11.32;;;3.50;;
34353;SDS011;20618;0.000;0.000;2024-03-07T09:03:17;14.98;;;4.03;;
34353;SDS011;20618;0.000;0.000;2024-03-07T09:05:43;9.27;;;2.90;;
34353;SDS011;20618;0.000;0.000;2024-03-07T09:08:10;10.50;;;3.47;;
34353;SDS011;20618;0.000;0.000;2024-03-07T09:10:36;10.40;;;3.72;;
34353;SDS011;20618;0.000;0.000;2024-03-07T09:13:06;6.78;;;3.17;;
34353;SDS011;20618;0.000;0.000;2024-03-07T09:15:32;10.32;;;3.50;;
34353;SDS011;20618;0.000;0.000;2024-03-07T09:17:58;8.07;;;3.17;;
34353;SDS011;20618;0.000;0.000;2024-03-07T09:20:28;13.07;;;3.25;;
34353;SDS011;20618;0.000;0.000;2024-03-07T09:22:56;10.32;;;3.35;;
34353;SDS011;20618;0.000;0.000;2024-03-07T09:25:25;8.32;;;2.97;;
34353;SDS011;20618;0.000;0.000;2024-03-07T09:27:52;11.77;;;3.20;;
34353;SDS011;20618;0.000;0.000;2024-03-07T09:30:19;9.82;;;3.58;;
34353;SDS011;20618;0.000;0.000;2024-03-07T09:32:49;9.13;;;3.40;;
34353;SDS011;20618;0.000;0.000;2024-03-07T09:35:16;13.13;;;3.63;;
34353;SDS011;20618;0.000;0.000;2024-03-07T09:37:43;10.77;;;4.25;;
34353;SDS011;20618;0.000;0.000;2024-03-07T09:40:09;13.13;;;4.90;;
34353;SDS011;20618;0.000;0.000;2024-03-07T09:42:42;11.82;;;5.13;;
34353;SDS011;20618;0.000;0.000;2024-03-07T09:45:13;10.73;;;4.93;;
34353;SDS011;20618;0.000;0.000;2024-03-07T09:47:42;12.52;;;4.80;;
34353;SDS011;20618;0.000;0.000;2024-03-07T09:50:11;24.85;;;6.32;;
34353;SDS011;20618;0.000;0.000;2024-03-07T09:52:37;24.75;;;6.45;;
34353;SDS011;20618;0.000;0.000;2024-03-07T09:55:04;27.48;;;6.90;;
34353;SDS011;20618;0.000;0.000;2024-03-07T09:57:33;21.20;;;6.60;;
34353;SDS011;20618;0.000;0.000;2024-03-07T10:00:00;19.92;;;6.78;;
34353;SDS011;20618;0.000;0.000;2024-03-07T10:02:28;24.77;;;5.65;;
34353;SDS011;20618;0.000;0.000;2024-03-07T10:04:55;20.35;;;5.18;;
34353;SDS011;20618;0.000;0.000;2024-03-07T10:07:22;18.83;;;5.40;;
34353;SDS011;20618;0.000;0.000;2024-03-07T10:09:49;16.75;;;5.20;;
34353;SDS011;20618;0.000;0.000;2024-03-07T10:12:17;19.33;;;6.80;;
34353;SDS011;20618;0.000;0.000;2024-03-07T10:14:50;33.63;;;7.57;;
34353;SDS011;20618;0.000;0.000;2024-03-07T10:17:17;22.75;;;5.60;;
34353;SDS011;20618;0.000;0.000;2024-03-07T10:19:46;17.85;;;5.47;;
34353;SDS011;20618;0.000;0.000;2024-03-07T10:22:16;16.52;;;4.68;;
34353;SDS011;20618;0.000;0.000;2024-03-07T10:24:49;18.40;;;4.82;;
34353;SDS011;20618;0.000;0.000;2024-03-07T10:27:17;39.20;;;6.80;;
34353;SDS011;20618;0.000;0.000;2024-03-07T10:29:45;30.05;;;5.80;;
34353;SDS011;20618;0.000;0.000;2024-03-07T10:32:12;84.97;;;13.32;;
34353;SDS011;20618;0.000;0.000;2024-03-07T10:34:38;32.63;;;6.22;;
34353;SDS011;20618;0.000;0.000;2024-03-07T10:37:04;32.38;;;6.32;;
34353;SDS011;20618;0.000;0.000;2024-03-07T10:39:34;33.42;;;7.07;;
34353;SDS011;20618;0.000;0.000;2024-03-07T10:42:00;24.20;;;6.43;;
34353;SDS011;20618;0.000;0.000;2024-03-07T10:44:30;24.02;;;5.53;;
34353;SDS011;20618;0.000;0.000;2024-03-07T10:46:57;14.35;;;4.93;;
34353;SDS011;20618;0.000;0.000;2024-03-07T10:49:28;50.78;;;10.05;;
34353;SDS011;20618;0.000;0.000;2024-03-07T10:52:07;22.42;;;5.82;;
34353;SDS011;20618;0.000;0.000;2024-03-07T10:54:37;9.82;;;4.65;;
34353;SDS011;20618;0.000;0.000;2024-03-07T10:59:50;18.05;;;5.40;;
34353;SDS011;20618;0.000;0.000;2024-03-07T11:04:52;22.23;;;4.65;;
34353;SDS011;20618;0.000;0.000;2024-03-07T11:07:22;18.70;;;4.80;;
34353;SDS011;20618;0.000;0.000;2024-03-07T11:09:49;17.50;;;5.53;;
34353;SDS011;20618;0.000;0.000;2024-03-07T11:12:18;18.02;;;5.38;;
34353;SDS011;20618;0.000;0.000;2024-03-07T11:14:45;21.05;;;6.10;;
34353;SDS011;20618;0.000;0.000;2024-03-07T11:17:12;20.45;;;5.95;;
34353;SDS011;20618;0.000;0.000;2024-03-07T11:19:40;17.92;;;5.70;;
34353;SDS011;20618;0.000;0.000;2024-03-07T11:22:06;17.83;;;5.53;;
34353;SDS011;20618;0.000;0.000;2024-03-07T11:24:42;24.20;;;6.65;;
34353;SDS011;20618;0.000;0.000;2024-03-07T11:27:10;19.73;;;5.90;;
34353;SDS011;20618;0.000;0.000;2024-03-07T11:29:49;14.65;;;5.78;;
34353;SDS011;20618;0.000;0.000;2024-03-07T11:32:19;19.13;;;5.57;;
34353;SDS011;20618;0.000;0.000;2024-03-07T11:34:49;18.83;;;6.45;;
34353;SDS011;20618;0.000;0.000;2024-03-07T11:37:18;16.13;;;5.22;;
34353;SDS011;20618;0.000;0.000;2024-03-07T11:39:47;17.30;;;5.07;;
34353;SDS011;20618;0.000;0.000;2024-03-07T11:42:31;16.17;;;5.25;;
34353;SDS011;20618;0.000;0.000;2024-03-07T11:45:00;16.63;;;5.72;;
34353;SDS011;20618;0.000;0.000;2024-03-07T11:47:35;19.25;;;5.80;;
34353;SDS011;20618;0.000;0.000;2024-03-07T11:50:03;21.30;;;5.28;;
34353;SDS011;20618;0.000;0.000;2024-03-07T11:52:33;13.10;;;5.30;;
34353;SDS011;20618;0.000;0.000;2024-03-07T11:55:01;22.20;;;5.80;;
34353;SDS011;20618;0.000;0.000;2024-03-07T11:57:31;26.90;;;5.70;;
34353;SDS011;20618;0.000;0.000;2024-03-07T12:00:01;18.00;;;5.40;;
34353;SDS011;20618;0.000;0.000;2024-03-07T12:02:33;21.92;;;5.55;;
34353;SDS011;20618;0.000;0.000;2024-03-07T12:04:59;24.13;;;6.30;;
34353;SDS011;20618;0.000;0.000;2024-03-07T12:07:25;24.65;;;5.53;;
34353;SDS011;20618;0.000;0.000;2024-03-07T12:09:52;16.52;;;5.28;;
34353;SDS011;20618;0.000;0.000;2024-03-07T12:12:21;18.55;;;5.82;;
34353;SDS011;20618;0.000;0.000;2024-03-07T12:14:48;16.80;;;5.35;;
34353;SDS011;20618;0.000;0.000;2024-03-07T12:17:16;18.65;;;5.20;;
34353;SDS011;20618;0.000;0.000;2024-03-07T12:19:42;22.08;;;5.20;;
34353;SDS011;20618;0.000;0.000;2024-03-07T12:22:09;12.48;;;4.97;;
34353;SDS011;20618;0.000;0.000;2024-03-07T12:24:38;17.30;;;5.45;;
34353;SDS011;20618;0.000;0.000;2024-03-07T12:27:08;14.40;;;5.03;;
34353;SDS011;20618;0.000;0.000;2024-03-07T12:29:35;155.38;;;15.27;;
34353;SDS011;20618;0.000;0.000;2024-03-07T12:32:04;20.75;;;5.60;;
34353;SDS011;20618;0.000;0.000;2024-03-07T12:34:31;24.05;;;6.03;;
34353;SDS011;20618;0.000;0.000;2024-03-07T12:37:01;19.83;;;5.85;;
34353;SDS011;20618;0.000;0.000;2024-03-07T12:39:28;17.30;;;4.70;;
34353;SDS011;20618;0.000;0.000;2024-03-07T12:42:03;20.48;;;4.90;;
34353;SDS011;20618;0.000;0.000;2024-03-07T12:44:39;23.58;;;5.53;;
34353;SDS011;20618;0.000;0.000;2024-03-07T12:47:10;18.55;;;5.35;;
34353;SDS011;20618;0.000;0.000;2024-03-07T12:49:36;21.55;;;6.43;;
34353;SDS011;20618;0.000;0.000;2024-03-07T12:52:04;20.85;;;5.57;;
34353;SDS011;20618;0.000;0.000;2024-03-07T12:54:31;14.93;;;5.15;;
34353;SDS011;20618;0.000;0.000;2024-03-07T12:56:57;24.38;;;5.72;;
34353;SDS011;20618;0.000;0.000;2024-03-07T12:59:23;20.08;;;5.55;;
34353;SDS011;20618;0.000;0.000;2024-03-07T13:01:49;24.88;;;6.47;;
34353;SDS011;20618;0.000;0.000;2024-03-07T13:04:16;24.58;;;6.50;;
34353;SDS011;20618;0.000;0.000;2024-03-07T13:06:42;19.55;;;5.57;;
34353;SDS011;20618;0.000;0.000;2024-03-07T13:09:09;25.08;;;5.80;;
34353;SDS011;20618;0.000;0.000;2024-03-07T13:11:39;17.35;;;5.50;;
34353;SDS011;20618;0.000;0.000;2024-03-07T13:14:12;17.35;;;6.05;;
34353;SDS011;20618;0.000;0.000;2024-03-07T13:16:39;16.90;;;6.05;;
34353;SDS011;20618;0.000;0.000;2024-03-07T13:19:08;20.52;;;5.95;;
34353;SDS011;20618;0.000;0.000;2024-03-07T13:21:37;21.73;;;6.22;;
34353;SDS011;20618;0.000;0.000;2024-03-07T13:24:04;16.50;;;6.32;;
34353;SDS011;20618;0.000;0.000;2024-03-07T13:26:31;19.90;;;6.45;;
34353;SDS011;20618;0.000;0.000;2024-03-07T13:28:57;21.77;;;6.35;;
34353;SDS011;20618;0.000;0.000;2024-03-07T13:31:27;20.92;;;6.32;;
34353;SDS011;20618;0.000;0.000;2024-03-07T13:33:55;20.55;;;6.32;;
34353;SDS011;20618;0.000;0.000;2024-03-07T13:36:21;12.43;;;5.35;;
34353;SDS011;20618;0.000;0.000;2024-03-07T13:38:53;18.63;;;6.28;;
34353;SDS011;20618;0.000;0.000;2024-03-07T13:41:21;22.23;;;6.18;;
34353;SDS011;20618;0.000;0.000;2024-03-07T13:43:50;25.83;;;6.40;;
34353;SDS011;20618;0.000;0.000;2024-03-07T13:46:16;22.88;;;6.22;;
34353;SDS011;20618;0.000;0.000;2024-03-07T13:48:43;25.25;;;6.50;;
34353;SDS011;20618;0.000;0.000;2024-03-07T13:51:09;20.83;;;6.15;;
34353;SDS011;20618;0.000;0.000;2024-03-07T13:53:40;18.48;;;6.22;;
34353;SDS011;20618;0.000;0.000;2024-03-07T14:06:10;25.58;;;6.97;;
34353;SDS011;20618;0.000;0.000;2024-03-07T14:19:27;20.38;;;6.22;;
34353;SDS011;20618;0.000;0.000;2024-03-07T14:32:34;18.48;;;5.82;;
34353;SDS011;20618;0.000;0.000;2024-03-07T14:35:14;23.23;;;6.50;;
34353;SDS011;20618;0.000;0.000;2024-03-07T14:37:49;23.70;;;6.40;;
34353;SDS011;20618;0.000;0.000;2024-03-07T14:40:18;17.10;;;6.05;;
34353;SDS011;20618;0.000;0.000;2024-03-07T14:42:45;17.85;;;5.70;;
34353;SDS011;20618;0.000;0.000;2024-03-07T14:45:13;19.77;;;6.15;;
34353;SDS011;20618;0.000;0.000;2024-03-07T14:47:41;26.27;;;7.43;;
34353;SDS011;20618;0.000;0.000;2024-03-07T14:50:08;25.92;;;6.28;;
34353;SDS011;20618;0.000;0.000;2024-03-07T14:52:35;26.83;;;7.15;;
34353;SDS011;20618;0.000;0.000;2024-03-07T14:55:06;23.92;;;6.75;;
34353;SDS011;20618;0.000;0.000;2024-03-07T14:57:32;22.88;;;6.45;;
34353;SDS011;20618;0.000;0.000;2024-03-07T14:59:59;26.80;;;7.20;;
34353;SDS011;20618;0.000;0.000;2024-03-07T15:02:25;29.10;;;7.22;;
34353;SDS011;20618;0.000;0.000;2024-03-07T15:04:52;19.83;;;6.03;;
34353;SDS011;20618;0.000;0.000;2024-03-07T15:07:18;25.52;;;6.35;;
34353;SDS011;20618;0.000;0.000;2024-03-07T15:09:48;23.80;;;6.13;;
34353;SDS011;20618;0.000;0.000;2024-03-07T15:12:15;18.15;;;6.03;;
34353;SDS011;20618;0.000;0.000;2024-03-07T15:14:42;29.70;;;7.45;;
34353;SDS011;20618;0.000;0.000;2024-03-07T15:17:08;25.13;;;6.40;;
34353;SDS011;20618;0.000;0.000;2024-03-07T15:19:34;20.60;;;6.57;;
34353;SDS011;20618;0.000;0.000;2024-03-07T15:22:01;26.75;;;7.43;;
34353;SDS011;20618;0.000;0.000;2024-03-07T15:24:28;20.98;;;6.75;;
34353;SDS011;20618;0.000;0.000;2024-03-07T15:26:55;16.30;;;5.82;;
34353;SDS011;20618;0.000;0.000;2024-03-07T15:29:22;22.88;;;6.70;;
34353;SDS011;20618;0.000;0.000;2024-03-07T15:31:49;21.65;;;6.65;;
34353;SDS011;20618;0.000;0.000;2024-03-07T15:34:15;20.90;;;6.40;;
34353;SDS011;20618;0.000;0.000;2024-03-07T15:36:42;17.42;;;5.82;;
34353;SDS011;20618;0.000;0.000;2024-03-07T15:39:08;22.58;;;6.38;;